Time;durP1;ratioP1;P1;durP2;ratioP2;P2;SDS_P1;SDS_P2;PMS_P1;PMS_P2;Temp;Humidity;BMP_temperature;BMP_pressure;BME280_temperature;BME280_humidity;BME280_pressure;Samples;Min_cycle;Max_cycle;Signal;HPM_P1;HPM_P2
2023/01/13 00:01:20;;;;;;;55.45;38.50;;;5.20;99.90;;;;;;5050219;28;20155;-48
2023/01/13 00:03:46;;;;;;;64.63;43.55;;;4.70;99.90;;;;;;5036144;28;20074;-49
2023/01/13 00:06:14;;;;;;;61.05;42.45;;;4.70;99.90;;;;;;5052118;28;20025;-49
2023/01/13 00:08:40;;;;;;;57.63;38.70;;;4.60;99.90;;;;;;5053904;28;20389;-49
2023/01/13 00:11:06;;;;;;;61.70;40.97;;;4.50;99.90;;;;;;5048592;28;20025;-49
2023/01/13 00:13:32;;;;;;;73.63;48.00;;;4.40;99.90;;;;;;5050520;28;20496;-49
2023/01/13 00:15:59;;;;;;;78.13;45.03;;;4.20;99.90;;;;;;5054311;28;21583;-50
2023/01/13 00:18:26;;;;;;;61.83;40.60;;;;;;;;;;5053407;28;20077;-50
2023/01/13 00:21:01;;;;;;;61.53;40.45;;;3.60;99.90;;;;;;5041273;28;20051;-49
2023/01/13 00:23:28;;;;;;;55.78;37.45;;;3.70;99.90;;;;;;5053413;28;20503;-50
2023/01/13 00:25:58;;;;;;;45.75;31.77;;;3.60;99.90;;;;;;5053416;28;20039;-49
2023/01/13 00:28:24;;;;;;;48.35;35.25;;;3.70;99.90;;;;;;5050006;28;20017;-48
2023/01/13 00:30:50;;;;;;;57.53;41.70;;;4.10;99.90;;;;;;5051220;28;20048;-48
2023/01/13 00:33:16;;;;;;;69.90;48.13;;;4.50;99.90;;;;;;5054191;28;20095;-47
2023/01/13 00:35:42;;;;;;;76.80;49.20;;;4.80;99.90;;;;;;5050654;28;20059;-48
2023/01/13 00:38:08;;;;;;;82.00;54.08;;;;;;;;;;5038114;28;20124;-48
2023/01/13 00:40:34;;;;;;;73.03;47.40;;;5.20;99.90;;;;;;5052844;28;20032;-48
2023/01/13 00:45:44;;;;;;;71.43;44.40;;;5.30;99.90;;;;;;5052578;28;20072;-47
2023/01/13 00:48:09;;;;;;;72.40;45.78;;;5.30;99.90;;;;;;5032908;28;20037;-49
2023/01/13 00:50:35;;;;;;;74.95;42.22;;;5.40;99.90;;;;;;5042422;28;20470;-48
2023/01/13 00:53:02;;;;;;;55.20;34.72;;;5.40;99.90;;;;;;5053982;28;20040;-50
2023/01/13 00:55:30;;;;;;;53.03;30.92;;;5.30;99.90;;;;;;5047617;28;20083;-49
2023/01/13 00:58:02;;;;;;;44.88;29.75;;;4.90;99.90;;;;;;5046471;28;20035;-49
2023/01/13 01:00:30;;;;;;;;;;;4.50;99.90;;;;;;5051999;28;20034;-48
2023/01/13 01:02:56;;;;;;;45.38;29.55;;;4.30;99.90;;;;;;5051024;28;19931;-50
2023/01/13 01:05:22;;;;;;;43.33;29.45;;;4.60;99.90;;;;;;5049159;28;20532;-49
2023/01/13 01:07:48;;;;;;;57.72;35.67;;;4.90;99.90;;;;;;5037795;28;20045;-47
2023/01/13 01:10:14;;;;;;;51.50;36.67;;;5.10;99.90;;;;;;5047340;28;20028;-50
2023/01/13 01:12:39;;;;;;;46.88;33.67;;;5.30;99.90;;;;;;5054221;28;20029;-50
2023/01/13 01:15:08;;;;;;;43.80;34.17;;;5.40;99.90;;;;;;5036251;28;20473;-47
2023/01/13 01:17:35;;;;;;;46.80;32.72;;;5.40;99.90;;;;;;5022731;28;20099;-49
2023/01/13 01:20:02;;;;;;;45.33;32.25;;;5.50;99.90;;;;;;5046877;28;20029;-49
2023/01/13 01:22:27;;;;;;;44.40;31.33;;;7.10;99.90;;;;;;5048803;28;20083;-47
2023/01/13 01:24:53;;;;;;;42.10;29.17;;;5.50;99.90;;;;;;5050435;28;20025;-49
2023/01/13 01:27:19;;;;;;;40.40;28.55;;;5.60;99.90;;;;;;5050181;28;20020;-48
2023/01/13 01:29:45;;;;;;;42.03;27.05;;;5.70;99.90;;;;;;5048034;28;20120;-49
2023/01/13 01:32:10;;;;;;;39.83;28.10;;;5.70;99.90;;;;;;5047920;28;20076;-47
2023/01/13 01:34:38;;;;;;;40.55;29.08;;;5.60;99.90;;;;;;5032361;28;20060;-49
2023/01/13 01:37:04;;;;;;;39.20;28.02;;;5.70;99.90;;;;;;5036822;28;20038;-49
2023/01/13 01:39:29;;;;;;;38.13;26.17;;;5.80;99.90;;;;;;5054154;28;20025;-47
2023/01/13 01:44:51;;;;;;;46.45;31.05;;;5.20;99.90;;;;;;5047335;28;20035;-50
2023/01/13 01:47:17;;;;;;;42.35;31.83;;;5.00;99.90;;;;;;5049997;28;20060;-48
2023/01/13 01:49:44;;;;;;;40.17;28.20;;;4.90;99.90;;;;;;5033519;28;20526;-49
2023/01/13 01:52:26;;;;;;;39.22;28.00;;;4.60;99.90;;;;;;5066384;28;20037;-48
2023/01/13 01:55:07;;;;;;;43.75;29.73;;;4.60;99.90;;;;;;5050544;28;20059;-49
2023/01/13 01:57:35;;;;;;;44.00;30.65;;;4.60;99.90;;;;;;5047521;28;20045;-49
2023/01/13 02:00:03;;;;;;;45.70;29.40;;;4.90;99.90;;;;;;5052424;28;20091;-47
2023/01/13 02:02:29;;;;;;;45.38;32.08;;;5.10;99.90;;;;;;5044819;28;20039;-48
2023/01/13 02:04:56;;;;;;;57.58;38.25;;;5.20;99.90;;;;;;5053872;28;20032;-50
2023/01/13 02:07:27;;;;;;;43.15;29.60;;;5.40;99.90;;;;;;5053818;28;20059;-49
2023/01/13 02:09:56;;;;;;;39.42;27.85;;;5.50;99.90;;;;;;5054089;28;20033;-50
2023/01/13 02:12:30;;;;;;;43.50;29.23;;;5.60;99.90;;;;;;5053840;28;20530;-47
2023/01/13 02:15:06;;;;;;;41.35;27.70;;;5.60;99.90;;;;;;5053366;28;20037;-49
2023/01/13 02:17:44;;;;;;;38.90;28.05;;;4.80;99.90;;;;;;5053830;28;20098;-48
2023/01/13 02:20:37;;;;;;;35.00;24.92;;;4.10;99.90;;;;;;5053617;28;20068;-49
2023/01/13 02:26:23;;;;;;;36.30;23.23;;;;;;;;;;5056080;28;20168;-48
2023/01/13 02:32:34;;;;;;;32.50;22.42;;;2.70;99.90;;;;;;5056780;28;20055;-54
2023/01/13 02:35:26;;;;;;;35.17;24.02;;;2.60;99.90;;;;;;5054194;28;20082;-49
2023/01/13 02:37:53;;;;;;;34.92;24.23;;;2.60;99.90;;;;;;5054714;28;20029;-55
2023/01/13 02:40:28;;;;;;;36.00;24.25;;;3.00;99.90;;;;;;5053503;28;20477;-50
2023/01/13 02:45:52;;;;;;;41.63;25.65;;;3.70;99.90;;;;;;5053774;28;20079;-47
2023/01/13 02:48:21;;;;;;;31.73;20.55;;;3.40;99.90;;;;;;5052844;28;20441;-48
2023/01/13 02:50:54;;;;;;;21.08;11.20;;;3.10;99.90;;;;;;5055449;28;20449;-49
2023/01/13 02:53:24;;;;;;;24.52;16.50;;;2.80;99.90;;;;;;5053228;28;20079;-48
2023/01/13 02:55:53;;;;;;;24.30;17.58;;;2.40;99.90;;;;;;5052743;28;20463;-48
2023/01/13 02:58:24;;;;;;;34.60;22.65;;;2.20;99.90;;;;;;5054068;28;20380;-46
2023/01/13 03:00:51;;;;;;;35.92;22.25;;;2.30;99.90;;;;;;5053351;28;20077;-49
2023/01/13 03:03:16;;;;;;;28.98;17.65;;;2.40;99.90;;;;;;5052773;28;20086;-49
2023/01/13 03:05:45;;;;;;;25.27;16.85;;;2.20;99.90;;;;;;5051006;28;20044;-49
2023/01/13 03:08:28;;;;;;;27.73;18.38;;;2.20;99.90;;;;;;5053076;28;20029;-47
2023/01/13 03:10:56;;;;;;;33.40;17.55;;;2.20;99.90;;;;;;5053272;28;20048;-47
2023/01/13 03:13:28;;;;;;;32.00;18.48;;;2.20;99.90;;;;;;5053037;28;20021;-47
2023/01/13 03:16:03;;;;;;;36.17;23.80;;;2.30;99.90;;;;;;5052546;28;20040;-48
2023/01/13 03:18:44;;;;;;;37.10;24.23;;;2.50;99.90;;;;;;5052843;28;20036;-47
2023/01/13 03:21:23;;;;;;;26.02;14.80;;;2.50;99.90;;;;;;5053560;28;20025;-48
2023/01/13 03:24:24;;;;;;;31.25;20.10;;;2.40;99.90;;;;;;5054838;28;20056;-49
2023/01/13 03:26:53;;;;;;;13.50;8.80;;;2.30;99.90;;;;;;5055427;28;20021;-48
2023/01/13 03:29:46;;;;;;;33.55;18.13;;;2.20;99.90;;;;;;5058434;28;20057;-49
2023/01/13 03:32:20;;;;;;;27.77;15.88;;;2.10;99.90;;;;;;5057633;28;20025;-48
2023/01/13 03:34:54;;;;;;;34.95;20.70;;;2.10;99.90;;;;;;5057615;28;20033;-48
2023/01/13 03:37:25;;;;;;;35.88;24.27;;;2.10;99.90;;;;;;5057694;28;20037;-50
2023/01/13 03:40:01;;;;;;;37.58;23.48;;;2.20;99.90;;;;;;5057873;28;20437;-47
2023/01/13 03:42:31;;;;;;;36.97;20.80;;;2.30;99.90;;;;;;5038886;28;20459;-54
2023/01/13 03:45:11;;;;;;;26.88;16.25;;;2.30;99.90;;;;;;5022045;28;20060;-49
2023/01/13 03:47:47;;;;;;;18.00;11.02;;;2.10;99.90;;;;;;5055064;28;20483;-47
2023/01/13 03:50:38;;;;;;;24.92;15.50;;;2.00;99.90;;;;;;5055286;28;20044;-48
2023/01/13 03:53:07;;;;;;;34.85;22.05;;;2.00;99.90;;;;;;5038351;28;20037;-47
2023/01/13 03:55:36;;;;;;;30.92;17.73;;;2.00;99.90;;;;;;5054893;28;20424;-47
2023/01/13 03:58:20;;;;;;;26.98;12.27;;;2.00;99.90;;;;;;5055511;28;20041;-49
2023/01/13 04:01:09;;;;;;;34.92;22.35;;;1.90;99.90;;;;;;5055597;28;20105;-49
2023/01/13 04:03:55;;;;;;;38.47;22.63;;;1.90;99.90;;;;;;5054983;28;20040;-49
2023/01/13 04:06:41;;;;;;;40.08;21.33;;;2.00;99.90;;;;;;5055887;28;20052;-55
2023/01/13 04:09:17;;;;;;;42.63;26.17;;;2.10;99.90;;;;;;5055381;28;20067;-54
2023/01/13 04:11:50;;;;;;;32.63;19.17;;;2.30;99.90;;;;;;5054362;28;20025;-49
2023/01/13 04:14:19;;;;;;;33.88;21.30;;;2.40;99.90;;;;;;5055462;28;20037;-48
2023/01/13 04:16:47;;;;;;;25.48;15.45;;;2.30;99.90;;;;;;5056007;28;20037;-48
2023/01/13 04:19:12;;;;;;;27.42;16.98;;;2.30;99.90;;;;;;5055872;28;20469;-48
2023/01/13 04:21:38;;;;;;;23.67;14.60;;;2.30;99.90;;;;;;5056240;28;20170;-47
2023/01/13 04:24:04;;;;;;;36.47;24.13;;;2.30;99.90;;;;;;5057149;28;20029;-49
2023/01/13 04:26:30;;;;;;;22.00;12.82;;;2.30;99.90;;;;;;5054433;28;20508;-47
2023/01/13 04:28:56;;;;;;;33.67;21.17;;;2.30;99.90;;;;;;5058883;28;20033;-52
2023/01/13 04:31:22;;;;;;;32.45;21.35;;;2.40;99.90;;;;;;5037373;28;20033;-47
2023/01/13 04:33:48;;;;;;;36.70;20.67;;;2.50;99.90;;;;;;5055743;28;20470;-49
2023/01/13 04:36:14;;;;;;;40.78;24.58;;;2.50;99.90;;;;;;5055519;28;20037;-47
2023/01/13 04:38:40;;;;;;;36.88;24.55;;;2.70;99.90;;;;;;5053711;28;20116;-47
2023/01/13 04:41:06;;;;;;;46.78;26.77;;;2.80;99.90;;;;;;5056016;28;20069;-53
2023/01/13 04:43:31;;;;;;;41.65;26.70;;;2.80;99.90;;;;;;5057323;28;20111;-49
2023/01/13 04:45:57;;;;;;;41.50;27.60;;;3.00;99.90;;;;;;5055222;28;20036;-47
2023/01/13 04:48:23;;;;;;;43.72;26.83;;;;;;;;;;5057646;28;20025;-54
2023/01/13 04:50:49;;;;;;;47.47;28.73;;;2.60;99.90;;;;;;5057578;28;20078;-47
2023/01/13 04:53:15;;;;;;;37.10;22.90;;;2.50;99.90;;;;;;5057528;28;20032;-50
2023/01/13 04:55:40;;;;;;;37.13;24.35;;;2.40;99.90;;;;;;5055750;28;20045;-55
2023/01/13 04:58:09;;;;;;;41.08;24.30;;;2.40;99.90;;;;;;5056581;28;20029;-49
2023/01/13 05:00:37;;;;;;;38.72;24.15;;;2.30;99.90;;;;;;5036888;28;20053;-49
2023/01/13 05:03:03;;;;;;;37.47;23.83;;;2.30;99.90;;;;;;5055679;28;20060;-49
2023/01/13 05:05:29;;;;;;;38.80;24.35;;;2.30;99.90;;;;;;5054837;28;20028;-48
2023/01/13 05:07:56;;;;;;;38.95;27.10;;;2.30;99.90;;;;;;5053105;28;20021;-48
2023/01/13 05:10:22;;;;;;;46.17;27.27;;;2.50;99.90;;;;;;5054600;28;20029;-49
2023/01/13 05:18:18;;;;;;;36.05;21.35;;;2.70;99.90;;;;;;5052879;28;20090;-49
2023/01/13 05:20:44;;;;;;;34.42;21.30;;;2.70;99.90;;;;;;5054306;28;20489;-47
2023/01/13 05:25:54;;;;;;;39.28;25.65;;;2.90;99.90;;;;;;5053797;28;20040;-50
2023/01/13 05:28:20;;;;;;;44.38;26.77;;;3.00;99.90;;;;;;5052719;28;20033;-47
2023/01/13 05:30:51;;;;;;;39.78;26.88;;;3.10;99.90;;;;;;5052685;28;20033;-49
2023/01/13 05:33:21;;;;;;;39.03;24.27;;;3.30;99.90;;;;;;5054883;28;20037;-49
2023/01/13 05:35:48;;;;;;;40.05;24.85;;;3.20;99.90;;;;;;5054234;28;20293;-49
2023/01/13 05:38:14;;;;;;;40.92;25.35;;;3.20;99.90;;;;;;5054421;28;20112;-50
2023/01/13 05:43:25;;;;;;;43.95;26.65;;;3.10;99.90;;;;;;5054697;28;20092;-48
2023/01/13 05:46:02;;;;;;;38.78;26.17;;;3.10;99.90;;;;;;5002990;28;20051;-49
2023/01/13 05:48:34;;;;;;;40.65;25.48;;;3.30;99.90;;;;;;5052323;28;20044;-50
2023/01/13 05:51:02;;;;;;;55.78;37.97;;;3.50;99.90;;;;;;5053893;28;20025;-47
2023/01/13 05:53:28;;;;;;;54.78;36.72;;;3.60;99.90;;;;;;5054228;28;20044;-48
2023/01/13 05:55:54;;;;;;;63.45;40.65;;;3.70;99.90;;;;;;5053891;28;20052;-50
2023/01/13 05:58:21;;;;;;;66.40;43.30;;;3.70;99.90;;;;;;5054004;28;20033;-47
2023/01/13 06:00:48;;;;;;;60.83;41.47;;;3.80;99.90;;;;;;5054308;28;20087;-49
2023/01/13 06:03:14;;;;;;;50.10;32.92;;;4.10;99.90;;;;;;5054402;28;20104;-49
2023/01/13 06:05:41;;;;;;;49.45;35.05;;;4.00;99.90;;;;;;5054212;28;20040;-46
2023/01/13 06:08:07;;;;;;;45.15;32.70;;;4.00;99.90;;;;;;5053924;28;20037;-48
2023/01/13 06:10:34;;;;;;;49.97;32.13;;;4.30;99.90;;;;;;5054263;28;20037;-49
2023/01/13 06:13:00;;;;;;;43.30;29.30;;;4.60;99.90;;;;;;5053997;28;20072;-48
2023/01/13 06:15:26;;;;;;;43.30;28.15;;;;;;;;;;5051857;28;20049;-48
2023/01/13 06:17:52;;;;;;;39.25;25.48;;;4.90;99.90;;;;;;5068942;28;20033;-49
2023/01/13 06:20:18;;;;;;;43.50;29.40;;;4.40;99.90;;;;;;5053600;28;20524;-48
2023/01/13 06:22:50;;;;;;;43.42;29.60;;;4.40;99.90;;;;;;5051636;28;20130;-48
2023/01/13 06:25:40;;;;;;;55.97;37.38;;;4.30;99.90;;;;;;5017755;28;20040;-49
2023/01/13 06:28:06;;;;;;;52.28;36.08;;;4.10;99.90;;;;;;5053775;28;20542;-49
2023/01/13 06:30:47;;;;;;;60.38;37.72;;;4.10;99.90;;;;;;5053426;28;20033;-48
2023/01/13 06:33:15;;;;;;;46.58;29.98;;;3.90;99.90;;;;;;5001803;28;20040;-48
2023/01/13 06:35:46;;;;;;;41.28;29.55;;;3.80;99.90;;;;;;5052720;28;20500;-49
2023/01/13 06:38:14;;;;;;;49.83;33.13;;;3.90;99.90;;;;;;5051605;28;20044;-48
2023/01/13 06:40:41;;;;;;;46.17;27.48;;;4.10;99.90;;;;;;5018917;28;20082;-47
2023/01/13 06:43:15;;;;;;;38.92;24.27;;;4.10;99.90;;;;;;5053338;28;20028;-49
2023/01/13 06:45:45;;;;;;;38.55;25.50;;;3.70;99.90;;;;;;5051661;28;20044;-47
2023/01/13 06:48:11;;;;;;;40.97;27.25;;;3.70;99.90;;;;;;5051412;28;20037;-47
2023/01/13 06:50:36;;;;;;;53.42;31.90;;;3.60;99.90;;;;;;5048766;28;20393;-47
2023/01/13 06:53:02;;;;;;;58.28;38.95;;;4.20;99.90;;;;;;5053733;28;20032;-49
2023/01/13 06:55:28;;;;;;;41.17;30.55;;;;;;;;;;5051109;28;20057;-49
2023/01/13 06:57:56;;;;;;;38.70;25.60;;;5.70;99.90;;;;;;5053673;28;20021;-49
2023/01/13 07:00:24;;;;;;;32.83;25.75;;;6.90;99.90;;;;;;5053259;28;20028;-48
2023/01/13 07:02:51;;;;;;;36.92;25.20;;;;;;;;;;5033751;28;20112;-47
2023/01/13 07:05:17;;;;;;;32.90;24.17;;;;;;;;;;5052648;28;20036;-49
2023/01/13 07:07:44;;;;;;;35.00;25.63;;;;;;;;;;5051778;28;20033;-49
2023/01/13 07:10:12;;;;;;;33.42;24.95;;;;;;;;;;5052754;28;20358;-47
2023/01/13 07:15:25;;;;;;;34.83;25.85;;;13.20;99.90;;;;;;5053076;28;20447;-50
2023/01/13 07:17:51;;;;;;;32.95;25.25;;;13.80;99.90;;;;;;5052778;28;20395;-49
2023/01/13 07:20:17;;;;;;;33.75;25.63;;;;;;;;;;5052887;28;20039;-49
2023/01/13 07:22:44;;;;;;;31.85;24.17;;;;;;;;;;5052881;28;20028;-50
2023/01/13 07:25:10;;;;;;;30.10;23.55;;;13.50;99.90;;;;;;5051467;28;20366;-50
2023/01/13 07:27:37;;;;;;;39.03;25.33;;;;;;;;;;5053117;28;20393;-49
2023/01/13 07:30:04;;;;;;;31.85;24.85;;;13.30;99.90;;;;;;5052599;28;20037;-51
2023/01/13 07:32:31;;;;;;;33.42;24.52;;;;;;;;;;5034244;28;20049;-50
2023/01/13 07:35:03;;;;;;;29.33;21.88;;;15.80;99.90;;;;;;5052778;28;20068;-50
2023/01/13 07:37:30;;;;;;;29.80;23.60;;;17.40;97.70;;;;;;5052625;28;20477;-47
2023/01/13 07:39:56;;;;;;;28.67;22.70;;;;;;;;;;5050904;28;20450;-48
2023/01/13 07:45:07;;;;;;;29.38;24.17;;;;;;;;;;5051302;28;20044;-48
2023/01/13 07:47:32;;;;;;;32.22;24.38;;;19.40;93.50;;;;;;5052582;28;20022;-49
2023/01/13 07:49:58;;;;;;;27.63;22.27;;;20.10;92.20;;;;;;5033458;28;20051;-46
2023/01/13 07:52:24;;;;;;;29.75;22.98;;;;;;;;;;5014056;28;20034;-46
2023/01/13 07:54:50;;;;;;;29.10;22.75;;;18.20;99.90;;;;;;5033009;28;20126;-47
2023/01/13 07:57:16;;;;;;;27.27;21.67;;;;;;;;;;5052116;28;20072;-45
2023/01/13 07:59:42;;;;;;;26.13;22.63;;;;;;;;;;5052067;28;20086;-46
2023/01/13 08:02:11;;;;;;;30.88;22.38;;;15.60;99.90;;;;;;5052494;28;20033;-47
2023/01/13 08:04:37;;;;;;;27.05;21.30;;;;;;;;;;5032314;28;20122;-45
2023/01/13 08:07:04;;;;;;;26.20;20.63;;;;;;;;;;5066149;28;20033;-46
2023/01/13 08:09:30;;;;;;;30.92;23.48;;;15.50;99.90;;;;;;5051720;28;20032;-47
2023/01/13 08:14:40;;;;;;;31.25;23.60;;;;;;;;;;5051804;28;20492;-49
2023/01/13 08:17:09;;;;;;;28.15;22.83;;;;;;;;;;5055486;28;20134;-47
2023/01/13 08:19:35;;;;;;;29.98;22.17;;;;;;;;;;5054208;28;20071;-48
2023/01/13 08:22:01;;;;;;;28.02;21.42;;;15.20;94.20;;;;;;5054073;28;20033;-49
2023/01/13 08:24:27;;;;;;;26.25;21.77;;;15.70;94.70;;;;;;5036307;28;20060;-49
2023/01/13 08:26:53;;;;;;;26.08;21.80;;;;;;;;;;5053319;28;20051;-46
2023/01/13 08:29:19;;;;;;;26.70;21.83;;;15.70;93.50;;;;;;5054917;28;20035;-46
2023/01/13 08:31:45;;;;;;;31.23;21.63;;;15.90;93.80;;;;;;5037379;28;20037;-50
2023/01/13 08:34:11;;;;;;;25.30;20.67;;;17.00;93.80;;;;;;5020633;28;20520;-49
2023/01/13 08:36:36;;;;;;;28.35;21.77;;;17.60;93.10;;;;;;5055564;28;20041;-48
2023/01/13 08:39:02;;;;;;;26.50;21.20;;;;;;;;;;5055602;28;20025;-48
2023/01/13 08:44:13;;;;;;;24.15;20.60;;;;;;;;;;5054746;28;20035;-49
2023/01/13 08:46:41;;;;;;;22.85;20.13;;;;;;;;;;5053066;28;20120;-48
2023/01/13 08:49:06;;;;;;;24.67;19.70;;;21.60;88.00;;;;;;5055195;28;20021;-48
2023/01/13 08:51:33;;;;;;;36.25;27.85;;;22.10;89.40;;;;;;5034800;28;20071;-46
2023/01/13 08:53:58;;;;;;;25.15;21.77;;;21.00;88.80;;;;;;5052648;28;20084;-46
2023/01/13 08:56:24;;;;;;;24.52;21.85;;;21.00;88.10;;;;;;5052950;28;20468;-47
2023/01/13 08:58:51;;;;;;;28.65;24.48;;;21.40;86.70;;;;;;5052854;28;20119;-49
2023/01/13 09:01:21;;;;;;;23.65;20.13;;;21.40;88.00;;;;;;5033089;28;20041;-48
2023/01/13 09:03:47;;;;;;;50.45;38.00;;;21.10;87.20;;;;;;5035476;28;20052;-45
2023/01/13 09:06:13;;;;;;;38.20;34.03;;;20.30;88.30;;;;;;5049329;28;20716;-49
2023/01/13 09:08:39;;;;;;;24.63;21.08;;;20.00;89.10;;;;;;5054515;28;20098;-47
2023/01/13 09:13:10;;;;;;;29.40;23.63;;;19.60;89.00;;;;;;5054659;28;20059;-48
2023/01/13 09:13:51;;;;;;;22.25;19.08;;;18.40;90.50;;;;;;5035820;28;20107;-49
2023/01/13 09:16:16;;;;;;;25.23;21.60;;;18.90;90.50;;;;;;5050826;28;20476;-47
2023/01/13 09:18:43;;;;;;;21.02;16.52;;;;;;;;;;5052072;28;20037;-47
2023/01/13 09:21:10;;;;;;;25.70;21.42;;;15.90;91.70;;;;;;5052369;28;20028;-47
2023/01/13 09:23:35;;;;;;;21.63;15.68;;;16.00;92.70;;;;;;5051986;28;20456;-49
2023/01/13 09:26:01;;;;;;;27.30;21.80;;;;;;;;;;5051371;28;20086;-48
2023/01/13 09:28:27;;;;;;;26.77;21.02;;;14.20;94.60;;;;;;5052163;28;20036;-49
2023/01/13 09:30:53;;;;;;;24.23;21.65;;;13.90;95.50;;;;;;5035273;28;20094;-47
2023/01/13 09:36:03;;;;;;;24.35;21.70;;;;;;;;;;5050306;28;20087;-49
2023/01/13 09:38:29;;;;;;;22.15;19.75;;;15.40;99.90;;;;;;5018903;28;20041;-47
2023/01/13 09:40:55;;;;;;;23.77;21.17;;;16.10;95.30;;;;;;5018773;28;20043;-49
2023/01/13 09:43:55;;;;;;;22.33;19.15;;;;;;;;;;5051326;28;20025;-48
2023/01/13 09:46:42;;;;;;;17.77;16.00;;;18.40;99.90;;;;;;5053496;28;20025;-48
2023/01/13 09:49:21;;;;;;;16.75;15.05;;;17.50;93.40;;;;;;5053676;28;20369;-47
2023/01/13 09:52:08;;;;;;;19.85;17.50;;;;;;;;;;5083800;28;20041;-47
2023/01/13 09:54:44;;;;;;;18.77;15.30;;;19.20;91.60;;;;;;5049213;28;20077;-47
2023/01/13 09:57:13;;;;;;;19.50;16.98;;;20.00;91.70;;;;;;5054474;28;20037;-48
2023/01/13 09:59:39;;;;;;;18.00;15.70;;;19.30;91.60;;;;;;5032204;28;20041;-49
2023/01/13 10:02:18;;;;;;;19.48;16.17;;;20.60;91.30;;;;;;5032359;28;20041;-47
2023/01/13 10:05:01;;;;;;;24.33;21.20;;;;;;;;;;5032075;28;20064;-48
2023/01/13 10:07:29;;;;;;;21.83;17.42;;;;;;;;;;5032102;28;20040;-49
2023/01/13 10:09:57;;;;;;;22.90;18.20;;;;;;;;;;5031532;28;20041;-49
2023/01/13 10:15:15;;;;;;;18.52;13.57;;;21.50;89.20;;;;;;5031726;28;20056;-48
2023/01/13 10:18:02;;;;;;;16.33;12.68;;;21.70;89.40;;;;;;5031855;28;20033;-47
2023/01/13 10:20:44;;;;;;;17.23;15.32;;;20.30;89.10;;;;;;5031795;28;20041;-48
2023/01/13 10:23:50;;;;;;;19.50;15.98;;;20.10;90.10;;;;;;5031823;28;20021;-48
2023/01/13 10:26:28;;;;;;;16.10;13.38;;;19.80;90.40;;;;;;5031781;28;20037;-47
2023/01/13 10:28:55;;;;;;;18.38;13.73;;;19.80;90.60;;;;;;5031585;28;20029;-47
2023/01/13 10:31:22;;;;;;;19.10;15.25;;;;;;;;;;5049607;28;20033;-49
2023/01/13 10:33:49;;;;;;;22.65;14.43;;;;;;;;;;5034627;28;20063;-48
2023/01/13 10:36:20;;;;;;;21.50;15.70;;;18.50;99.90;;;;;;5053388;28;20455;-49
2023/01/13 10:38:49;;;;;;;19.00;14.03;;;17.70;91.40;;;;;;5053372;28;20117;-48
2023/01/13 10:41:15;;;;;;;18.20;14.30;;;;;;;;;;5053673;28;20036;-48
2023/01/13 10:43:57;;;;;;;19.70;14.75;;;16.90;99.90;;;;;;5068237;28;20037;-48
2023/01/13 10:46:23;;;;;;;19.88;14.02;;;;;;;;;;5053660;28;20029;-48
2023/01/13 10:48:57;;;;;;;16.83;13.55;;;;;;;;;;5053434;28;20036;-48
2023/01/13 10:51:27;;;;;;;17.60;15.10;;;15.30;93.80;;;;;;5052943;28;20086;-49
2023/01/13 10:53:52;;;;;;;20.00;15.25;;;16.00;94.60;;;;;;5052853;28;20481;-49
2023/01/13 10:56:20;;;;;;;21.17;16.88;;;15.80;94.60;;;;;;5052494;28;20035;-49
2023/01/13 10:58:46;;;;;;;18.65;15.25;;;16.50;94.50;;;;;;5051081;28;20060;-49
2023/01/13 11:01:30;;;;;;;19.65;15.85;;;16.80;93.70;;;;;;5068123;28;20048;-49
2023/01/13 11:03:56;;;;;;;23.02;14.70;;;16.80;93.40;;;;;;5034478;28;20117;-49
2023/01/13 11:06:28;;;;;;;21.92;17.67;;;16.40;93.40;;;;;;5050904;28;20033;-50
2023/01/13 11:08:57;;;;;;;24.65;18.67;;;16.20;93.70;;;;;;5050796;28;20068;-51
2023/01/13 11:11:33;;;;;;;30.08;20.88;;;15.80;93.80;;;;;;5052568;28;20033;-48
2023/01/13 11:16:54;;;;;;;25.83;18.80;;;14.50;95.10;;;;;;5052959;28;20040;-50
2023/01/13 11:19:23;;;;;;;29.75;20.65;;;14.30;95.70;;;;;;5053228;28;20430;-48
2023/01/13 11:22:02;;;;;;;29.20;18.45;;;14.50;95.50;;;;;;5053096;28;20021;-51
2023/01/13 11:24:39;;;;;;;27.70;18.33;;;13.90;95.90;;;;;;5053055;28;20036;-49
2023/01/13 11:27:25;;;;;;;25.67;19.33;;;13.50;96.10;;;;;;5052972;28;20120;-47
2023/01/13 11:30:01;;;;;;;29.42;22.10;;;13.40;97.20;;;;;;5053080;28;20151;-48
2023/01/13 11:32:33;;;;;;;28.30;21.30;;;13.50;97.30;;;;;;5053024;28;20051;-47
2023/01/13 11:35:03;;;;;;;29.73;19.55;;;13.70;97.70;;;;;;5053050;28;20033;-50
2023/01/13 11:37:35;;;;;;;28.38;21.25;;;13.80;97.40;;;;;;5052838;28;20033;-51
2023/01/13 11:40:29;;;;;;;23.25;18.98;;;14.10;97.60;;;;;;5052761;28;20074;-51
2023/01/13 11:43:00;;;;;;;29.77;20.77;;;14.50;97.30;;;;;;5053050;28;20035;-48
2023/01/13 11:45:25;;;;;;;22.15;17.92;;;15.30;96.10;;;;;;5053052;28;20103;-47
2023/01/13 11:47:57;;;;;;;23.33;18.58;;;16.20;95.50;;;;;;5053621;28;20559;-49
2023/01/13 11:50:44;;;;;;;24.52;17.88;;;17.10;94.80;;;;;;5057079;28;20469;-48
2023/01/13 11:53:36;;;;;;;21.88;16.98;;;17.30;94.40;;;;;;5056602;28;20031;-50
2023/01/13 11:56:23;;;;;;;23.17;18.30;;;17.60;93.90;;;;;;5056696;28;20052;-49
2023/01/13 11:59:25;;;;;;;22.17;16.23;;;17.10;93.50;;;;;;5056564;28;20106;-49
2023/01/13 12:02:21;;;;;;;21.20;17.50;;;16.90;94.10;;;;;;5088861;28;20083;-50
2023/01/13 12:05:06;;;;;;;22.25;17.35;;;;;;;;;;5056717;28;20031;-50
2023/01/13 12:07:40;;;;;;;21.20;16.85;;;17.20;93.90;;;;;;5056572;28;20072;-51
2023/01/13 12:10:15;;;;;;;24.95;17.63;;;16.80;94.40;;;;;;5056380;28;20052;-50
2023/01/13 12:12:59;;;;;;;22.88;17.50;;;17.10;94.70;;;;;;5056377;28;20029;-49
2023/01/13 12:15:37;;;;;;;23.23;17.27;;;17.30;95.60;;;;;;5056344;28;20114;-50
2023/01/13 12:18:14;;;;;;;21.63;16.73;;;17.40;94.70;;;;;;5056715;28;20487;-47
2023/01/13 12:21:01;;;;;;;24.90;16.92;;;16.80;94.60;;;;;;5056243;28;20021;-49
2023/01/13 12:23:44;;;;;;;22.35;16.88;;;16.30;95.00;;;;;;5056319;28;20029;-50
2023/01/13 12:26:12;;;;;;;20.75;17.05;;;16.00;95.40;;;;;;5055879;28;20025;-50
2023/01/13 12:28:56;;;;;;;19.90;16.92;;;15.60;95.10;;;;;;5054525;28;20044;-49
2023/01/13 12:31:23;;;;;;;25.25;16.27;;;15.70;95.80;;;;;;5087861;28;20051;-50
2023/01/13 12:34:04;;;;;;;29.25;17.95;;;15.30;95.90;;;;;;5055904;28;20033;-48
2023/01/13 12:36:54;;;;;;;24.45;18.95;;;15.20;96.20;;;;;;5054046;28;20052;-47
2023/01/13 12:39:50;;;;;;;26.50;20.80;;;15.10;96.50;;;;;;5056120;28;20028;-48
2023/01/13 12:45:21;;;;;;;23.92;18.30;;;15.10;96.40;;;;;;5055636;28;20035;-47
2023/01/13 12:47:47;;;;;;;24.48;19.23;;;15.10;96.40;;;;;;5054076;28;20441;-48
2023/01/13 12:50:22;;;;;;;25.35;19.35;;;15.20;96.70;;;;;;5037056;28;20120;-50
2023/01/13 12:52:50;;;;;;;27.45;20.58;;;15.00;96.70;;;;;;5055694;28;20040;-50
2023/01/13 12:55:18;;;;;;;27.00;20.02;;;15.10;96.80;;;;;;5053973;28;20045;-50
2023/01/13 12:58:09;;;;;;;25.05;18.33;;;15.10;96.90;;;;;;5053843;28;20037;-49
2023/01/13 13:00:41;;;;;;;30.35;21.25;;;14.60;97.00;;;;;;5035681;28;20045;-49
2023/01/13 13:03:12;;;;;;;25.85;19.40;;;14.50;97.70;;;;;;5055636;28;20025;-49
2023/01/13 13:06:02;;;;;;;28.95;20.52;;;14.60;97.80;;;;;;5055400;28;20110;-49
2023/01/13 13:08:40;;;;;;;27.65;19.52;;;14.70;98.10;;;;;;5055234;28;20118;-51
2023/01/13 13:14:26;;;;;;;27.65;20.08;;;14.40;99.00;;;;;;5055430;28;20392;-49
2023/01/13 13:16:52;;;;;;;30.63;21.95;;;14.20;97.60;;;;;;5054963;28;20139;-48
2023/01/13 13:19:18;;;;;;;30.52;21.70;;;13.90;98.40;;;;;;5053345;28;20866;-50
2023/01/13 13:22:25;;;;;;;28.15;18.67;;;13.40;98.60;;;;;;5055277;28;20484;-48
2023/01/13 13:24:51;;;;;;;26.75;19.52;;;13.00;99.40;;;;;;5013209;28;20118;-47
2023/01/13 13:27:20;;;;;;;31.70;21.85;;;13.00;99.90;;;;;;5012981;28;20022;-47
2023/01/13 13:29:57;;;;;;;28.88;20.42;;;13.20;99.90;;;;;;5013172;28;20038;-48
2023/01/13 13:32:50;;;;;;;25.08;19.95;;;13.20;99.90;;;;;;5012725;28;20083;-47
2023/01/13 13:35:43;;;;;;;34.28;23.85;;;13.10;99.90;;;;;;4996310;28;20096;-48
2023/01/13 13:46:47;;;;;;;34.63;24.50;;;;;;;;;;5012884;28;20572;-51
2023/01/13 13:49:21;;;;;;;29.65;21.80;;;12.10;99.90;;;;;;5012588;28;20037;-50
2023/01/13 13:52:04;;;;;;;26.98;20.20;;;12.10;99.90;;;;;;5012681;28;20029;-50
2023/01/13 13:54:31;;;;;;;25.45;19.98;;;12.10;99.90;;;;;;4981077;28;20052;-51
2023/01/13 13:56:57;;;;;;;27.48;20.48;;;12.20;99.90;;;;;;5034388;28;20037;-49
2023/01/13 13:59:26;;;;;;;33.00;23.08;;;12.20;99.90;;;;;;5034212;28;20038;-49
2023/01/13 14:02:02;;;;;;;28.75;21.10;;;12.00;99.90;;;;;;5034537;28;20041;-50
2023/01/13 14:04:31;;;;;;;31.33;22.08;;;12.10;99.90;;;;;;5034389;28;20112;-48
2023/01/13 14:07:00;;;;;;;28.20;22.33;;;12.00;99.90;;;;;;5049154;28;20061;-51